Time;durP1;ratioP1;P1;durP2;ratioP2;P2;SDS_P1;SDS_P2;PMS_P1;PMS_P2;Temp;Humidity;BMP_temperature;BMP_pressure;BME280_temperature;BME280_humidity;BME280_pressure;Samples;Min_cycle;Max_cycle;Signal;HPM_P1;HPM_P2
2023/02/27 00:00:31;;;;;;;6.13;3.70;;;;;;;-3.35;100.00;95623.28;5004312;28;20042;-75
2023/02/27 00:03:17;;;;;;;6.63;3.35;;;;;;;-3.42;100.00;95623.22;5002000;28;20073;-75
2023/02/27 00:05:43;;;;;;;6.43;3.22;;;;;;;-3.41;100.00;95627.38;5005108;28;20073;-75
2023/02/27 00:08:08;;;;;;;6.50;3.30;;;;;;;-3.42;100.00;95628.38;5010008;28;20545;-75
2023/02/27 00:10:34;;;;;;;7.63;3.58;;;;;;;-3.34;100.00;95630.81;5006976;28;20044;-75
2023/02/27 00:12:59;;;;;;;7.82;3.58;;;;;;;-3.35;100.00;95626.69;5005507;28;20041;-76
2023/02/27 00:15:25;;;;;;;6.80;3.33;;;;;;;-3.43;100.00;95621.63;5007184;28;20045;-75
2023/02/27 00:17:51;;;;;;;7.43;3.88;;;;;;;-3.45;100.00;95633.84;5002774;28;20057;-75
2023/02/27 00:20:18;;;;;;;7.45;3.38;;;;;;;-3.48;100.00;95634.22;5006482;28;20042;-75
2023/02/27 00:22:44;;;;;;;8.15;3.55;;;;;;;-3.44;100.00;95637.25;5003250;28;20053;-76
2023/02/27 00:25:11;;;;;;;7.03;3.42;;;;;;;-3.51;100.00;95634.56;5000190;28;20069;-76
2023/02/27 00:27:37;;;;;;;6.32;3.45;;;;;;;-3.57;100.00;95630.94;5010715;28;20586;-75
2023/02/27 00:30:04;;;;;;;6.13;3.30;;;;;;;-3.67;100.00;95630.41;5002034;28;20411;-75
2023/02/27 00:32:30;;;;;;;6.47;3.03;;;;;;;-3.63;100.00;95631.66;5002422;28;20493;-76
2023/02/27 00:34:55;;;;;;;7.30;3.33;;;;;;;-3.70;100.00;95628.97;5002571;28;20034;-76
2023/02/27 00:37:21;;;;;;;8.32;3.65;;;;;;;-3.62;100.00;95632.44;5007856;28;20398;-76
2023/02/27 00:39:47;;;;;;;6.05;3.38;;;;;;;-3.66;100.00;95640.50;5009514;28;20034;-75
2023/02/27 00:42:12;;;;;;;5.38;2.92;;;;;;;-3.63;100.00;95636.78;5002762;28;20042;-75
2023/02/27 00:44:39;;;;;;;6.65;3.53;;;;;;;-3.62;100.00;95637.59;5005541;28;20046;-75
2023/02/27 00:47:05;;;;;;;7.10;3.92;;;;;;;-3.60;100.00;95630.50;5008030;28;20501;-75
2023/02/27 00:49:30;;;;;;;8.68;3.42;;;;;;;-3.66;100.00;95627.66;5007340;28;20030;-75
2023/02/27 00:51:56;;;;;;;8.27;4.10;;;;;;;-3.58;100.00;95633.69;5006795;28;20493;-75
2023/02/27 00:54:21;;;;;;;7.55;3.10;;;;;;;-3.62;100.00;95622.16;5008136;28;20572;-75
2023/02/27 00:56:47;;;;;;;9.45;3.95;;;;;;;-3.58;100.00;95636.25;5005201;28;20049;-75
2023/02/27 00:59:13;;;;;;;6.32;3.42;;;;;;;-3.60;100.00;95635.66;5003686;28;20049;-75
2023/02/27 01:01:39;;;;;;;7.40;3.50;;;;;;;-3.57;100.00;95637.84;5006575;28;20042;-76
2023/02/27 01:04:04;;;;;;;7.60;3.60;;;;;;;-3.60;100.00;95640.78;5006794;28;20832;-75
2023/02/27 01:06:30;;;;;;;6.65;3.58;;;;;;;-3.54;100.00;95635.72;5004960;28;20044;-76
2023/02/27 01:08:55;;;;;;;9.70;3.58;;;;;;;-3.45;100.00;95640.78;5007870;28;20116;-75
2023/02/27 01:11:21;;;;;;;9.95;3.83;;;;;;;-3.58;100.00;95628.53;5007275;28;20034;-75
2023/02/27 01:13:47;;;;;;;6.20;3.50;;;;;;;-3.59;100.00;95632.06;5006086;28;20050;-75
2023/02/27 01:16:12;;;;;;;7.88;4.13;;;;;;;-3.66;100.00;95632.78;5007025;28;20048;-75
2023/02/27 01:18:38;;;;;;;5.47;3.22;;;;;;;-3.66;100.00;95627.66;5004387;28;20052;-75
2023/02/27 01:21:05;;;;;;;5.38;3.42;;;;;;;-3.68;100.00;95624.47;5020460;28;20042;-75
2023/02/27 01:23:30;;;;;;;6.00;3.40;;;;;;;-3.72;100.00;95623.22;5006953;28;20050;-75
2023/02/27 01:25:56;;;;;;;7.60;3.50;;;;;;;-3.72;100.00;95628.38;5006523;28;20038;-76
2023/02/27 01:28:21;;;;;;;6.38;3.20;;;;;;;-3.63;100.00;95630.84;5006033;28;20061;-76
2023/02/27 01:30:47;;;;;;;7.32;3.90;;;;;;;-3.73;100.00;95619.03;5006526;28;20451;-75
2023/02/27 01:33:13;;;;;;;8.40;3.83;;;;;;;-3.73;100.00;95637.06;5004507;28;20167;-75
2023/02/27 01:35:38;;;;;;;7.15;3.75;;;;;;;-3.72;100.00;95632.69;5009748;28;20093;-76
2023/02/27 01:38:04;;;;;;;7.15;3.25;;;;;;;-3.70;100.00;95631.53;5010673;28;20054;-75
2023/02/27 01:40:34;;;;;;;5.53;2.88;;;;;;;-3.74;100.00;95640.59;5009752;28;20574;-75
2023/02/27 01:42:59;;;;;;;12.10;3.45;;;;;;;-3.68;100.00;95634.75;5010957;28;20041;-75
2023/02/27 01:45:33;;;;;;;6.03;3.47;;;;;;;-3.67;100.00;95636.34;5009977;28;20049;-75
2023/02/27 01:48:12;;;;;;;7.75;3.40;;;;;;;-3.74;100.00;95640.59;5010459;28;20030;-75
2023/02/27 01:50:44;;;;;;;9.18;3.83;;;;;;;-3.76;100.00;95642.56;5001450;28;20097;-75
2023/02/27 01:53:10;;;;;;;7.45;3.40;;;;;;;-3.77;100.00;95640.94;5009795;28;20543;-75
2023/02/27 01:55:37;;;;;;;7.65;3.90;;;;;;;-3.79;100.00;95645.47;5012140;28;20072;-76
2023/02/27 01:58:06;;;;;;;7.15;3.42;;;;;;;-3.77;100.00;95640.94;5010107;28;20046;-76
2023/02/27 02:00:32;;;;;;;6.45;3.70;;;;;;;-3.79;100.00;95648.03;5003179;28;20049;-76
2023/02/27 02:03:33;;;;;;;7.10;3.53;;;;;;;-3.69;100.00;95653.72;5007074;28;20038;-76
2023/02/27 02:06:01;;;;;;;6.97;3.70;;;;;;;-3.74;100.00;95645.72;5024202;28;20049;-76
2023/02/27 02:08:30;;;;;;;11.48;3.83;;;;;;;-3.86;100.00;95642.00;5011863;28;20501;-75
2023/02/27 02:10:57;;;;;;;6.57;3.63;;;;;;;-3.82;100.00;95650.97;5011386;28;20045;-75
2023/02/27 02:13:23;;;;;;;7.18;3.65;;;;;;;-3.81;100.00;95644.84;5004120;28;20149;-75
2023/02/27 02:16:09;;;;;;;7.65;3.33;;;;;;;-3.84;100.00;95655.47;5009411;28;20545;-75
2023/02/27 02:18:52;;;;;;;8.18;3.95;;;;;;;-3.81;100.00;95649.97;5004319;28;20104;-75
2023/02/27 02:21:52;;;;;;;8.32;4.32;;;;;;;-3.77;100.00;95651.22;5008087;28;20053;-76
2023/02/27 02:24:51;;;;;;;8.40;3.47;;;;;;;-3.74;100.00;95640.59;5011515;28;20049;-75
2023/02/27 02:27:42;;;;;;;8.80;4.00;;;;;;;-3.64;100.00;95650.63;5008566;28;20045;-75
2023/02/27 02:30:43;;;;;;;6.88;3.58;;;;;;;-3.69;100.00;95643.44;5004477;28;20069;-75
2023/02/27 02:33:29;;;;;;;7.75;3.95;;;;;;;-3.70;100.00;95641.84;5006273;28;20109;-75
2023/02/27 02:36:13;;;;;;;7.85;3.63;;;;;;;-3.62;100.00;95642.72;5008733;28;20045;-74
2023/02/27 02:38:49;;;;;;;7.22;3.90;;;;;;;-3.62;100.00;95632.44;5010575;28;20121;-75
2023/02/27 02:41:29;;;;;;;8.13;3.72;;;;;;;-3.76;100.00;95642.56;5001877;28;20089;-75
2023/02/27 02:44:01;;;;;;;9.00;3.80;;;;;;;-3.81;100.00;95644.84;5010105;28;20049;-74
2023/02/27 02:46:39;;;;;;;9.68;3.90;;;;;;;-3.87;100.00;95641.19;5011434;28;20034;-75
2023/02/27 02:49:21;;;;;;;7.93;4.25;;;;;;;-3.70;100.00;95646.19;5008182;28;20046;-75
2023/02/27 02:52:00;;;;;;;6.93;3.83;;;;;;;-3.77;100.00;95650.44;5006252;28;20041;-75
2023/02/27 02:54:44;;;;;;;7.85;3.63;;;;;;;-3.73;100.00;95639.63;5010647;28;20050;-74
2023/02/27 02:57:18;;;;;;;10.38;3.70;;;;;;;-3.68;100.00;95645.03;5011996;28;20046;-75
2023/02/27 03:00:23;;;;;;;8.38;4.22;;;;;;;-3.71;100.00;95647.94;5008245;28;20108;-75
2023/02/27 03:03:01;;;;;;;7.15;3.58;;;;;;;-3.64;100.00;95639.53;4965845;28;20062;-74
2023/02/27 03:05:36;;;;;;;6.80;3.83;;;;;;;-3.67;100.00;95638.91;5011058;28;20042;-74
2023/02/27 03:08:04;;;;;;;;;;;;;;;-3.68;100.00;95645.03;5008988;28;20037;-74
2023/02/27 03:10:36;;;;;;;6.75;3.38;;;;;;;-3.69;100.00;95643.44;5009547;28;19932;-75
2023/02/27 03:13:13;;;;;;;8.60;4.05;;;;;;;-3.81;100.00;95639.69;5007892;28;20120;-75
2023/02/27 03:16:08;;;;;;;10.63;4.00;;;;;;;-3.83;100.00;95637.31;5003790;28;20045;-75
2023/02/27 03:18:39;;;;;;;10.68;3.40;;;;;;;-3.88;100.00;95643.94;5001164;28;20561;-75
2023/02/27 03:21:12;;;;;;;9.27;3.83;;;;;;;-3.91;100.00;95650.22;5007388;28;20049;-75
2023/02/27 03:23:43;;;;;;;8.30;3.58;;;;;;;-3.95;100.00;95637.91;5010246;28;20161;-75
2023/02/27 03:26:12;;;;;;;10.40;4.03;;;;;;;-3.94;100.00;95644.66;5009501;28;20065;-75
2023/02/27 03:28:48;;;;;;;7.38;4.03;;;;;;;-3.83;100.00;95649.38;5008625;28;20038;-75
2023/02/27 03:31:29;;;;;;;9.55;3.85;;;;;;;-3.80;100.00;95646.44;5007207;28;20037;-75
2023/02/27 03:34:07;;;;;;;8.88;3.85;;;;;;;-3.77;100.00;95651.22;5004246;28;20572;-75
2023/02/27 03:36:48;;;;;;;7.22;3.72;;;;;;;-3.73;100.00;95655.06;5002035;28;20041;-74
2023/02/27 03:39:22;;;;;;;7.88;4.38;;;;;;;-3.76;100.00;95657.97;5009622;28;20564;-75
2023/02/27 03:41:48;;;;;;;;;;;;;;;-3.71;100.00;95650.53;5003338;28;20042;-75
2023/02/27 03:44:36;;;;;;;6.45;3.90;;;;;;;-3.72;100.00;95654.09;5008116;28;19944;-75
2023/02/27 03:47:02;;;;;;;7.47;3.60;;;;;;;-3.80;100.00;95655.94;4991592;28;20053;-75
2023/02/27 03:49:28;;;;;;;8.38;3.45;;;;;;;-3.83;100.00;95657.09;5006503;28;20053;-75
2023/02/27 03:51:53;;;;;;;10.35;3.17;;;;;;;-3.75;100.00;95664.72;5007912;28;20042;-75
2023/02/27 03:54:24;;;;;;;9.75;3.97;;;;;;;-3.70;100.00;95667.56;5009417;28;20037;-75
2023/02/27 03:56:58;;;;;;;8.20;3.92;;;;;;;-3.71;100.00;95665.94;5006543;28;20042;-75
2023/02/27 03:59:25;;;;;;;9.30;4.17;;;;;;;-3.78;100.00;95665.06;5002574;28;20041;-75
2023/02/27 04:01:52;;;;;;;6.95;3.70;;;;;;;-3.81;100.00;95667.97;5009296;28;20465;-75
2023/02/27 04:04:18;;;;;;;8.65;4.00;;;;;;;-3.78;100.00;95670.19;5004236;28;20645;-75
2023/02/27 04:09:56;;;;;;;7.28;3.60;;;;;;;-3.73;100.00;95667.13;5008171;28;20536;-75
2023/02/27 04:12:52;;;;;;;12.55;4.32;;;;;;;-3.75;100.00;95659.59;5006004;28;20037;-75
2023/02/27 04:15:52;;;;;;;8.27;3.80;;;;;;;-3.74;100.00;95671.44;5007965;28;20041;-75
2023/02/27 04:18:44;;;;;;;10.30;3.20;;;;;;;-3.71;100.00;95671.09;5007058;28;20049;-75
2023/02/27 04:21:27;;;;;;;7.65;3.70;;;;;;;-3.73;100.00;95667.91;5004281;28;20050;-75
2023/02/27 04:23:59;;;;;;;9.52;4.18;;;;;;;-3.78;100.00;95680.47;5006934;28;20045;-75
2023/02/27 04:26:39;;;;;;;11.02;4.20;;;;;;;-3.76;100.00;95673.41;5009125;28;21852;-75
2023/02/27 04:29:16;;;;;;;6.00;3.40;;;;;;;-3.59;100.00;95678.38;5004801;28;20092;-75
2023/02/27 04:31:54;;;;;;;7.45;4.07;;;;;;;-3.75;100.00;95675.00;5001868;28;20060;-75
2023/02/27 04:34:28;;;;;;;7.25;4.07;;;;;;;-3.74;100.00;95679.16;5001799;28;20589;-75
2023/02/27 04:37:02;;;;;;;9.63;3.97;;;;;;;-3.69;100.00;95676.09;5009152;28;20045;-75
2023/02/27 04:39:43;;;;;;;7.50;3.88;;;;;;;-3.72;100.00;95674.66;5007745;28;20096;-75
2023/02/27 04:42:15;;;;;;;7.10;4.32;;;;;;;-3.60;100.00;95679.38;5007760;28;21090;-74
2023/02/27 04:44:43;;;;;;;7.68;3.92;;;;;;;-3.68;100.00;95675.91;5005191;28;20049;-75
2023/02/27 04:47:12;;;;;;;8.18;4.18;;;;;;;-3.73;100.00;95673.06;5008203;28;20084;-75
2023/02/27 04:49:45;;;;;;;8.07;3.80;;;;;;;-3.67;100.00;95672.34;5006539;28;20056;-75
2023/02/27 04:52:26;;;;;;;6.50;3.75;;;;;;;-3.75;100.00;95672.44;5003274;28;20038;-75
2023/02/27 04:54:58;;;;;;;9.57;3.97;;;;;;;-3.58;100.00;95664.56;5007401;28;20030;-75
2023/02/27 04:57:30;;;;;;;6.43;3.55;;;;;;;-3.70;100.00;95666.78;5008433;28;20065;-74
2023/02/27 05:00:00;;;;;;;8.23;3.67;;;;;;;-3.68;100.00;95665.63;5001062;28;20549;-75
2023/02/27 05:02:34;;;;;;;9.68;4.47;;;;;;;-3.72;100.00;95664.38;5006264;28;20104;-75
2023/02/27 05:05:06;;;;;;;6.65;3.80;;;;;;;-3.73;100.00;95662.78;5007671;28;20046;-75
2023/02/27 05:07:46;;;;;;;8.18;3.95;;;;;;;-3.77;100.00;95656.38;4997543;28;20493;-74
2023/02/27 05:10:25;;;;;;;8.52;4.10;;;;;;;-3.79;100.00;95657.53;5007330;28;20038;-75
2023/02/27 05:12:57;;;;;;;10.77;4.35;;;;;;;-3.79;100.00;95657.53;5004443;28;20046;-75
2023/02/27 05:15:34;;;;;;;9.18;3.72;;;;;;;-3.80;100.00;95661.09;5008619;28;20453;-75
2023/02/27 05:18:06;;;;;;;7.57;3.90;;;;;;;-3.82;100.00;95663.84;5006755;28;20387;-74
2023/02/27 05:20:57;;;;;;;10.90;4.07;;;;;;;-3.82;100.00;95663.84;5002119;28;20513;-75
2023/02/27 05:23:50;;;;;;;8.77;3.88;;;;;;;-3.88;100.00;95664.50;5007305;28;20038;-75
2023/02/27 05:26:32;;;;;;;13.57;4.57;;;;;;;-3.86;100.00;95662.59;5005175;28;20141;-74
2023/02/27 05:29:19;;;;;;;7.50;3.58;;;;;;;-3.80;100.00;95661.88;5006241;28;20038;-75
2023/02/27 05:31:55;;;;;;;10.90;4.40;;;;;;;-3.82;100.00;95663.84;5008013;28;20038;-75
2023/02/27 05:34:37;;;;;;;6.68;3.97;;;;;;;-3.87;100.00;95666.91;5004390;28;20169;-76
2023/02/27 05:37:13;;;;;;;8.48;4.07;;;;;;;-3.91;100.00;95667.44;5004556;28;20050;-75
2023/02/27 05:39:42;;;;;;;7.13;3.90;;;;;;;-3.95;100.00;95668.75;5007475;28;20042;-75
2023/02/27 05:42:17;;;;;;;8.40;3.83;;;;;;;-3.90;100.00;95663.91;5004050;28;20120;-75
2023/02/27 05:44:48;;;;;;;11.38;3.90;;;;;;;-3.94;100.00;95665.22;5002229;28;20050;-75
2023/02/27 05:47:21;;;;;;;8.68;4.25;;;;;;;-4.01;100.00;95665.94;5008689;28;20041;-75
2023/02/27 05:50:00;;;;;;;7.28;4.25;;;;;;;-3.98;100.00;95669.09;5008241;28;20067;-75
2023/02/27 05:52:29;;;;;;;9.13;3.70;;;;;;;-3.93;100.00;95671.97;5003085;28;20413;-75
2023/02/27 05:55:09;;;;;;;7.28;4.30;;;;;;;-4.00;100.00;95667.50;5007119;28;20046;-75
2023/02/27 05:58:00;;;;;;;10.30;3.78;;;;;;;-3.99;100.00;95673.47;5007612;28;20037;-76
2023/02/27 06:00:35;;;;;;;8.60;3.90;;;;;;;-4.00;100.00;95677.78;5005399;28;20505;-76
2023/02/27 06:03:01;;;;;;;6.68;3.70;;;;;;;-4.05;100.00;95674.13;5003959;28;20042;-76
2023/02/27 06:05:27;;;;;;;9.43;4.35;;;;;;;-4.00;100.00;95680.34;5008505;28;20049;-75
2023/02/27 06:07:53;;;;;;;8.52;3.78;;;;;;;-4.08;100.00;95680.44;5009616;28;20833;-75
2023/02/27 06:10:19;;;;;;;7.95;3.83;;;;;;;-4.04;100.00;95681.69;5009437;28;20050;-76
2023/02/27 06:12:45;;;;;;;7.38;3.83;;;;;;;-3.98;100.00;95679.38;5003010;28;20414;-76
2023/02/27 06:15:11;;;;;;;6.13;3.42;;;;;;;-3.93;100.00;95680.47;5008028;28;20071;-76
2023/02/27 06:17:37;;;;;;;7.65;3.70;;;;;;;-3.93;100.00;95682.25;5009169;28;20497;-76
2023/02/27 06:20:05;;;;;;;7.28;3.63;;;;;;;-3.87;100.00;95681.53;5011311;28;20615;-76
2023/02/27 06:22:32;;;;;;;7.28;3.97;;;;;;;-3.85;100.00;95689.88;5008055;28;20104;-76
2023/02/27 06:24:57;;;;;;;8.05;4.25;;;;;;;-3.84;100.00;95688.91;5011417;28;20041;-75
2023/02/27 06:27:25;;;;;;;8.77;4.22;;;;;;;-3.84;100.00;95696.63;5006321;28;20549;-75
2023/02/27 06:29:52;;;;;;;7.88;3.70;;;;;;;-3.83;100.00;95693.09;5010315;28;20076;-75
2023/02/27 06:32:19;;;;;;;9.90;3.85;;;;;;;-3.87;100.00;95692.63;5015891;28;20421;-75
2023/02/27 06:34:44;;;;;;;6.97;3.70;;;;;;;-3.85;100.00;95689.88;5013837;28;20048;-76
2023/02/27 06:37:10;;;;;;;8.57;3.65;;;;;;;-3.80;100.00;95697.88;5013515;28;20046;-74
2023/02/27 06:39:35;;;;;;;8.95;4.25;;;;;;;-3.84;100.00;95699.19;5010353;28;20045;-76
2023/02/27 06:42:01;;;;;;;7.97;4.15;;;;;;;-3.83;100.00;95701.59;5002727;28;20252;-76
2023/02/27 06:44:26;;;;;;;10.75;3.85;;;;;;;-3.70;100.00;95703.56;5009520;28;20042;-76
2023/02/27 06:46:52;;;;;;;9.18;3.70;;;;;;;-3.73;100.00;95703.91;5023820;28;20069;-78
2023/02/27 06:49:17;;;;;;;7.40;3.75;;;;;;;-3.70;100.00;95693.28;5006612;28;20038;-77
2023/02/27 06:51:43;;;;;;;7.95;3.80;;;;;;;-3.68;100.00;95699.06;5012301;28;20042;-77
2023/02/27 06:54:08;;;;;;;6.82;3.40;;;;;;;-3.58;100.00;95705.72;5010660;28;20055;-76
2023/02/27 06:56:34;;;;;;;7.75;3.65;;;;;;;-3.61;100.00;95711.22;5011393;28;20049;-78
2023/02/27 06:59:00;;;;;;;6.22;3.47;;;;;;;-3.53;100.00;95703.44;5007427;28;20049;-78
2023/02/27 07:01:25;;;;;;;7.15;4.03;;;;;;;-3.41;100.00;95716.66;5011259;28;20525;-76
2023/02/27 07:03:51;;;;;;;8.15;3.80;;;;;;;-3.37;100.00;95708.41;5008835;28;20079;-77
2023/02/27 07:06:16;;;;;;;11.40;4.32;;;;;;;-3.36;100.00;95699.72;5010717;28;20494;-76
2023/02/27 07:08:42;;;;;;;8.18;3.85;;;;;;;-3.35;100.00;95703.88;5008004;28;20098;-79
2023/02/27 07:11:07;;;;;;;10.88;3.80;;;;;;;-3.41;100.00;95702.00;5011962;28;20504;-77
2023/02/27 07:13:33;;;;;;;7.10;3.28;;;;;;;-3.29;100.00;95699.00;5013247;28;20049;-76
2023/02/27 07:15:59;;;;;;;8.43;3.42;;;;;;;-3.28;100.00;95710.88;5008830;28;20129;-75
2023/02/27 07:18:24;;;;;;;7.40;3.40;;;;;;;-3.13;100.00;95703.97;5010867;28;20038;-77
2023/02/27 07:20:51;;;;;;;8.70;3.78;;;;;;;-3.12;100.00;95710.69;5012730;28;20579;-76
2023/02/27 07:23:17;;;;;;;8.00;3.80;;;;;;;-3.06;100.00;95704.03;5007735;28;20046;-76
2023/02/27 07:25:42;;;;;;;6.70;3.63;;;;;;;-3.04;100.00;95713.19;5008091;28;20052;-75
2023/02/27 07:28:08;;;;;;;7.63;3.53;;;;;;;-3.01;100.00;95707.69;5022902;28;20038;-77
2023/02/27 07:30:33;;;;;;;8.77;3.75;;;;;;;-2.87;100.00;95718.16;5005425;28;20096;-75
2023/02/27 07:32:59;;;;;;;7.35;3.40;;;;;;;-2.88;100.00;95716.56;4999307;28;20565;-76
2023/02/27 07:35:25;;;;;;;11.50;3.88;;;;;;;-2.88;100.00;95721.72;5008033;28;20934;-76
2023/02/27 07:37:50;;;;;;;6.95;3.63;;;;;;;-2.74;100.00;95723.47;5007740;28;20042;-75
2023/02/27 07:40:16;;;;;;;8.75;3.63;;;;;;;-2.79;100.00;95725.75;5010478;28;20045;-73
2023/02/27 07:42:42;;;;;;;11.10;4.03;;;;;;;-2.75;100.00;95724.44;5005079;28;20042;-75
2023/02/27 07:45:08;;;;;;;10.25;3.90;;;;;;;-2.67;100.00;95724.34;5007544;28;20072;-74
2023/02/27 07:47:34;;;;;;;8.48;4.13;;;;;;;-2.77;100.00;95723.81;5004257;28;20429;-74
2023/02/27 07:50:00;;;;;;;7.70;3.75;;;;;;;-2.70;100.00;95721.31;5011219;28;20064;-75
2023/02/27 07:52:26;;;;;;;8.05;3.97;;;;;;;-2.65;100.00;95722.38;5007788;28;20046;-75
2023/02/27 07:54:51;;;;;;;8.93;4.07;;;;;;;-2.55;100.00;95736.75;5020090;28;20045;-76
2023/02/27 07:57:17;;;;;;;11.73;4.22;;;;;;;-2.65;100.00;95727.53;5011603;28;20034;-76
2023/02/27 07:59:43;;;;;;;7.43;3.50;;;;;;;-2.62;100.00;95722.00;5017959;28;20034;-76
2023/02/27 08:02:10;;;;;;;7.75;3.72;;;;;;;-2.71;100.00;95717.94;5012063;28;20052;-75
2023/02/27 08:04:36;;;;;;;12.50;4.22;;;;;;;-2.50;100.00;95739.56;5003624;28;20041;-75
2023/02/27 08:07:02;;;;;;;6.82;3.42;;;;;;;-2.50;100.00;95734.41;5010520;28;20034;-74
2023/02/27 08:09:29;;;;;;;8.05;3.78;;;;;;;-2.36;100.00;95720.69;5008397;28;20045;-75
2023/02/27 08:11:55;;;;;;;9.77;4.13;;;;;;;-2.42;100.00;95726.59;5005867;28;20073;-75
2023/02/27 08:14:21;;;;;;;11.73;3.40;;;;;;;-2.40;100.00;95729.75;5008940;28;20034;-75
2023/02/27 08:16:47;;;;;;;7.63;3.70;;;;;;;-2.26;100.00;95730.72;5009873;28;20506;-74
2023/02/27 08:19:13;;;;;;;5.80;3.53;;;;;;;-2.47;100.00;95734.88;5010879;28;20038;-75
2023/02/27 08:21:39;;;;;;;5.88;3.55;;;;;;;-2.24;100.00;95733.09;5007615;28;20693;-75
2023/02/27 08:24:05;;;;;;;8.43;4.15;;;;;;;-2.24;100.00;95739.06;5011913;28;20049;-74
2023/02/27 08:26:30;;;;;;;9.02;3.70;;;;;;;-2.28;100.00;95738.63;5009409;28;20041;-74
2023/02/27 08:28:56;;;;;;;8.73;4.05;;;;;;;-2.30;100.00;95735.44;5009652;28;20122;-74
2023/02/27 08:31:22;;;;;;;9.18;4.00;;;;;;;-2.29;100.00;95752.50;5007819;28;20508;-74
2023/02/27 08:33:48;;;;;;;11.15;3.97;;;;;;;-2.13;100.00;95742.94;5006170;28;20105;-74
2023/02/27 08:36:13;;;;;;;11.68;5.13;;;;;;;-2.16;100.00;95744.09;5009383;28;20054;-74
2023/02/27 08:38:39;;;;;;;7.53;3.67;;;;;;;-2.19;100.00;95746.25;5006203;28;20038;-74
2023/02/27 08:41:04;;;;;;;9.80;4.20;;;;;;;-2.11;100.00;95759.03;5007244;28;20033;-75
2023/02/27 08:43:30;;;;;;;7.20;3.70;;;;;;;-2.08;100.00;95748.34;5009743;28;20041;-74
2023/02/27 08:45:56;;;;;;;6.78;3.65;;;;;;;-2.14;100.00;95746.50;5010622;28;20049;-74
2023/02/27 08:48:23;;;;;;;6.82;3.80;;;;;;;-2.03;100.00;95751.16;5007057;28;20065;-74
2023/02/27 08:50:49;;;;;;;10.90;4.40;;;;;;;-1.94;100.00;95765.56;5023009;28;20045;-74
2023/02/27 08:53:15;;;;;;;8.68;4.43;;;;;;;-2.04;100.00;95759.09;5009198;28;20042;-73
2023/02/27 08:55:41;;;;;;;14.23;4.10;;;;;;;-1.99;100.00;95767.09;5010551;28;20034;-73
2023/02/27 08:58:08;;;;;;;6.15;3.85;;;;;;;-1.94;100.00;95760.41;5007702;28;20045;-73
2023/02/27 09:00:33;;;;;;;8.80;4.18;;;;;;;-1.90;100.00;95771.13;5010120;28;20509;-74
2023/02/27 09:03:00;;;;;;;10.55;4.72;;;;;;;-1.84;100.00;95779.91;5005766;28;20038;-74
2023/02/27 09:05:26;;;;;;;11.30;4.53;;;;;;;-1.84;100.00;95779.91;5008586;28;20060;-74
2023/02/27 09:07:52;;;;;;;7.75;4.22;;;;;;;-1.80;100.00;95781.16;5008745;28;20041;-74
2023/02/27 09:10:18;;;;;;;12.07;4.40;;;;;;;-1.65;100.00;95774.13;5010406;28;20053;-73
2023/02/27 09:12:43;;;;;;;10.10;4.95;;;;;;;-1.60;100.00;95776.94;5006026;28;20038;-73
2023/02/27 09:15:10;;;;;;;11.93;4.47;;;;;;;-1.66;100.00;95782.84;5008302;28;20045;-73
2023/02/27 09:17:36;;;;;;;8.85;4.35;;;;;;;-1.70;100.00;95780.84;5010624;28;20041;-73
2023/02/27 09:20:03;;;;;;;7.25;3.97;;;;;;;-1.61;100.00;95777.94;5006511;28;20505;-73
2023/02/27 09:22:30;;;;;;;8.73;4.38;;;;;;;-1.57;100.00;95791.25;5010870;28;20045;-73
2023/02/27 09:24:55;;;;;;;13.27;4.35;;;;;;;-1.68;100.00;95784.84;5027327;28;20034;-71
2023/02/27 09:27:22;;;;;;;10.18;4.13;;;;;;;-1.78;100.00;95784.31;5035135;28;20619;-71
2023/02/27 09:29:54;;;;;;;11.30;4.55;;;;;;;-1.58;100.00;95785.31;5033335;28;20060;-72
2023/02/27 09:32:23;;;;;;;10.63;5.22;;;;;;;-1.61;100.00;95790.84;5035380;28;20033;-71
2023/02/27 09:34:49;;;;;;;11.18;4.63;;;;;;;-1.70;100.00;95791.16;5034931;28;20037;-72
2023/02/27 09:37:15;;;;;;;8.82;4.30;;;;;;;-1.84;100.00;95785.88;5034129;28;20042;-72
2023/02/27 09:39:41;;;;;;;7.47;4.45;;;;;;;-1.98;100.00;95800.44;5027292;28;20044;-72
2023/02/27 09:42:29;;;;;;;10.32;4.80;;;;;;;-1.97;100.00;95812.34;5033613;28;20072;-72
2023/02/27 09:44:58;;;;;;;8.50;4.78;;;;;;;-2.04;100.00;95808.91;5034082;28;20030;-72
2023/02/27 09:47:29;;;;;;;9.30;5.07;;;;;;;-1.90;100.00;95816.78;5019392;28;20053;-73
2023/02/27 09:49:54;;;;;;;9.65;4.95;;;;;;;-1.58;100.00;95821.44;5012451;28;20034;-73
2023/02/27 09:52:20;;;;;;;9.70;5.15;;;;;;;-1.72;100.00;95819.72;5015352;28;20604;-73
2023/02/27 09:54:45;;;;;;;17.10;5.70;;;;;;;-1.41;100.00;95823.75;5012082;28;20101;-73
2023/02/27 09:57:17;;;;;;;9.65;5.10;;;;;;;-1.69;100.00;95819.34;5012725;28;20099;-73
2023/02/27 09:59:50;;;;;;;8.95;4.30;;;;;;;-1.51;100.00;95825.88;5008034;28;20046;-73
2023/02/27 10:02:19;;;;;;;12.90;5.32;;;;;;;-1.42;100.00;95824.78;5012128;28;20626;-73
2023/02/27 10:04:52;;;;;;;12.48;4.38;;;;;;;-1.50;100.00;95837.78;5008658;28;20505;-73
2023/02/27 10:07:37;;;;;;;8.43;3.72;;;;;;;-1.66;100.00;95829.31;5010296;28;20037;-73
2023/02/27 10:10:31;;;;;;;7.45;3.70;;;;;;;-1.49;100.00;95835.03;5014927;28;20041;-73
2023/02/27 10:13:25;;;;;;;10.57;4.50;;;;;;;-1.28;100.00;95831.63;5008870;28;20063;-73
2023/02/27 10:15:52;;;;;;;9.15;3.90;;;;;;;-1.17;100.00;95842.44;5009207;28;20065;-75
2023/02/27 10:18:25;;;;;;;9.40;3.92;;;;;;;-1.17;100.00;95838.06;5012123;28;20041;-73
2023/02/27 10:21:01;;;;;;;10.82;3.83;;;;;;;-1.08;100.00;95841.31;5010299;28;20042;-72
2023/02/27 10:23:45;;;;;;;7.75;3.92;;;;;;;-0.95;100.00;95841.41;5011648;28;20042;-75
2023/02/27 10:26:23;;;;;;;12.40;4.30;;;;;;;-1.20;100.00;95843.59;5018848;28;20057;-74
2023/02/27 10:28:49;;;;;;;8.63;4.30;;;;;;;-0.97;100.00;95838.22;5010657;28;20042;-73
2023/02/27 10:31:19;;;;;;;8.65;4.05;;;;;;;-0.84;100.00;95847.84;5010580;28;20104;-73
2023/02/27 10:33:47;;;;;;;9.75;4.38;;;;;;;-0.81;100.00;95846.66;5008507;28;20046;-73
2023/02/27 10:36:14;;;;;;;7.50;4.00;;;;;;;-0.90;100.00;95839.06;5005036;28;20045;-73
2023/02/27 10:38:50;;;;;;;8.40;4.07;;;;;;;-0.77;100.00;95859.00;5009574;28;20038;-74
2023/02/27 10:41:19;;;;;;;15.32;4.40;;;;;;;-0.66;100.00;95849.94;5003946;28;20132;-73
2023/02/27 10:43:45;;;;;;;9.23;3.70;;;;;;;-0.85;100.00;95855.78;5008012;28;20096;-74
2023/02/27 10:46:24;;;;;;;7.30;3.53;;;;;;;-0.91;100.00;95855.53;5011032;28;20049;-74
2023/02/27 10:48:50;;;;;;;6.40;3.35;;;;;;;-0.74;100.00;95857.84;5003870;28;20046;-74
2023/02/27 10:51:33;;;;;;;11.52;3.75;;;;;;;-0.65;100.00;95855.91;5008538;28;20060;-74
2023/02/27 10:54:17;;;;;;;9.55;3.70;;;;;;;-0.47;100.00;95847.66;5009503;28;20406;-73
2023/02/27 10:56:53;;;;;;;7.32;3.50;;;;;;;-0.73;100.00;95854.28;5008100;28;20415;-73
2023/02/27 10:59:24;;;;;;;5.35;3.22;;;;;;;-0.74;100.00;95852.66;5010986;28;20046;-76
2023/02/27 11:02:01;;;;;;;6.88;2.97;;;;;;;-0.70;100.00;95856.47;5008652;28;20045;-74
2023/02/27 11:04:35;;;;;;;6.13;3.17;;;;;;;-0.65;100.00;95854.09;5005737;28;20042;-74
2023/02/27 11:07:05;;;;;;;6.70;3.20;;;;;;;-0.82;100.00;95865.72;5006682;28;20045;-75
2023/02/27 11:09:32;;;;;;;8.95;3.30;;;;;;;-0.95;100.00;95854.34;5007498;28;20069;-75
2023/02/27 11:12:29;;;;;;;6.82;3.38;;;;;;;-0.90;100.00;95858.94;5011969;28;20041;-76
2023/02/27 11:14:58;;;;;;;8.10;3.72;;;;;;;-0.78;100.00;95851.44;5008053;28;20061;-77
2023/02/27 11:17:30;;;;;;;6.30;3.30;;;;;;;-0.78;100.00;95851.44;5001249;28;20046;-77
2023/02/27 11:19:57;;;;;;;8.77;3.25;;;;;;;-1.06;100.00;95849.69;5006012;28;20038;-77
2023/02/27 11:22:26;;;;;;;5.57;3.03;;;;;;;-0.90;100.00;95848.59;5006362;28;20084;-77
2023/02/27 11:25:08;;;;;;;7.97;3.25;;;;;;;-1.09;100.00;95839.72;5011304;28;20038;-77
2023/02/27 11:27:33;;;;;;;8.35;3.30;;;;;;;-1.11;100.00;95850.22;5010112;28;20425;-75
2023/02/27 11:30:01;;;;;;;6.15;2.75;;;;;;;-1.06;100.00;95854.84;5007544;28;20121;-76
2023/02/27 11:32:42;;;;;;;6.25;3.25;;;;;;;-1.06;100.00;95849.69;5004677;28;20502;-75
2023/02/27 11:35:25;;;;;;;7.70;3.03;;;;;;;-1.17;100.00;95847.59;5005745;28;20108;-74
2023/02/27 11:37:53;;;;;;;6.20;2.63;;;;;;;-1.31;100.00;95846.69;5008184;28;20105;-75
2023/02/27 11:40:21;;;;;;;7.50;3.33;;;;;;;-1.11;100.00;95841.69;5014142;28;20064;-75
2023/02/27 11:42:50;;;;;;;4.30;2.72;;;;;;;-1.04;100.00;95842.53;5013485;28;20172;-74
2023/02/27 11:45:32;;;;;;;6.57;2.80;;;;;;;-1.13;100.00;95843.66;5018595;28;20054;-74